Tiempo atmosférico en la estación meteorológica de Chelva, València/Valencia (546 m.)



Fecha
DESCASC
Temp. máxima en grados centígrados (hora)
DESCASC
Temp. mínima en grados centígrados (hora)
DESCASC
Temp. media en grados centígrados
DESCASC
Racha de viento máxima en m/sg (hora)
DESCASC
Velocidad máxima media en intervalos de 10 minutos(hora)
DESCASC
Precipitaciones diarias en mm
DESCASC
Precipitaciones de 00:00 a 06:00 en mm
DESCASC
Precipitaciones de 06:00 a 12:00 en mm
DESCASC
Precipitaciones de 12:00 a 18:00 en mm
DESCASC
Precipitaciones de 18:00 a 24:00 en mm
DESCASC
13-01-2021 13.9 (15:30) -0.6 (06:50) 6.6 6.39 (01:40) 3.61 (04:20) 0 0 0 0 0
12-01-2021 10.6 (16:10) -4.4 (04:30) 3.1 9.17 (09:00) 5.83 (09:00) 0 0 0 0 0
11-01-2021 7.9 (11:50) -2.4 (23:59) 2.8 6.67 (15:30) 3.61 (16:40) 0 0 0 0 0
10-01-2021 7.1 (15:10) -2.8 (06:50) 2.1 7.22 (01:00) 3.89 (01:00) 0 0 0 0 0
09-01-2021 2.2 (11:40) -0.2 (00:00) 1 6.94 (23:30) 4.17 (23:30) 21.8 10 4.6 7.2 0
08-01-2021 1.2 (12:00) 0 (00:00) 0.6 4.44 (21:20) 2.22 (21:20) 13.8 1.6 2.2 6.6 3.4
07-01-2021 3.2 (12:20) 0.2 (00:00) 1.7 4.72 (17:40) 2.78 (17:50) 10.4 0.6 0.2 4.8 4.8
06-01-2021 10.2 (15:50) -3.7 (-00:0) 3.2 6.11 (16:10) 3.61 (16:20) 0 0 0 0 0
05-01-2021 9.9 (15:00) -1.5 (-00:0) 4.2 8.61 (14:00) 5.28 (14:00) 0 0 0 0 0
04-01-2021 9.3 (14:50) -1 (-00:0) 4.2 10.83 (12:40) 6.39 (12:30) 0 0 0 0 0
03-01-2021 10.7 (14:30) 2.2 (00:00) 6.4 13.89 (10:20) 7.22 (10:00) 0 0 0 0 0
02-01-2021 6.7 (14:10) 0.7 (00:00) 3.7 15.83 (13:10) 8.06 (14:00) 0 0 0 0 0
01-01-2021 10.1 (15:20) 3.2 (00:00) 6.7 16.11 (12:20) 9.17 (12:20) 0 0 0 0 0
31-12-2020 12.9 (15:20) 1.7 (00:00) 7.3 11.67 (16:10) 6.39 (13:30) 0 0 0 0 0
30-12-2020 12 (15:10) 2.7 (00:00) 7.4 13.06 (12:00) 7.5 (12:50) 0 0 0 0 0
29-12-2020 9.9 (15:30) 3.9 (00:00) 6.9 16.39 (14:00) 8.33 (11:10) 0 0 0 0 0
28-12-2020 11.7 (15:30) 5.2 (00:00) 8.4 19.44 (05:40) 10.83 (01:00) 0.8 0 0.8 0 0
27-12-2020 14.8 (14:50) -0.5 (-00:0) 7.2 20 (21:50) 11.67 (21:00) 0 0 0 0 0
26-12-2020 11.1 (14:10) 1.3 (00:00) 6.2 20.28 (01:00) 12.5 (01:00) 0 0 0 0 0
25-12-2020 10 (15:10) 3.3 (00:00) 6.6 15.83 (23:50) 9.44 (23:40) 0 0 0 0 0
24-12-2020 15.9 (14:00) 5.8 (00:00) 10.8 6.39 (01:40) 4.17 (01:30) 0 0 0 0 0
23-12-2020 20.5 (14:50) 7.8 (00:00) 14.2 11.11 (21:10) 5.83 (21:10) 0 0 0 0 0
21-12-2020 18.5 (16:10) 3.7 (00:00) 11.1 8.33 (12:10) 5.56 (12:10) 0 0 0 0 0
20-12-2020 15.9 (14:50) 4.6 (00:00) 10.2 8.61 (14:10) 5 (13:40) 0 0 0 0 0
19-12-2020 15.6 (13:00) 3.9 (00:00) 9.8 10.28 (13:40) 5 (15:00) 0 0 0 0 0
18-12-2020 17.5 (14:50) 3.3 (00:00) 10.4 4.17 (16:20) 2.5 (06:30) 0 0 0 0 0
17-12-2020 18.2 (15:00) 3.1 (00:00) 10.7 6.11 (04:50) 2.78 (00:40) 0 0 0 0 0

Gráficas

Temp. máximas Temp. mínimas Temp. medias Precipitaciones Rachas de viento máximas Velocidades máximas media en intervalos de 10 minutos

Datos horarios

Fecha y hora oficial Temperatura (ºC) Velocidad del viento (km/h) Dirección del viento Racha (km/h) Dirección de racha Precipitación (mm) Presión (hPa) Tendencia (hPa) Humedad (%)
2021-01-15 23:00:00 7.1 38 Noroeste 57 Noroeste 0 -- -- 54
2021-01-15 22:00:00 7.6 31 Noroeste 52 Noroeste 0 -- -- 51
2021-01-15 21:00:00 7.8 24 Noroeste 44 Noroeste 0 -- -- 51
2021-01-15 20:00:00 7.9 19 Noroeste 42 Oeste 0 -- -- 50
2021-01-15 19:00:00 7.9 17 Noroeste 36 Noroeste 0 -- -- 51
2021-01-15 18:00:00 8.9 20 Noroeste 50 Noroeste 0 -- -- 50
2021-01-15 17:00:00 11.5 22 Noroeste 45 Oeste 0 -- -- 42
2021-01-15 16:00:00 12.5 21 Noroeste 42 Noroeste 0 -- -- 37
2021-01-15 15:00:00 11.8 24 Noroeste 41 Noroeste 0 -- -- 38
2021-01-15 14:00:00 12.6 16 Noroeste 33 Oeste 0 -- -- 40
2021-01-15 13:00:00 11.9 18 Noroeste 32 Oeste 0 -- -- 43
2021-01-15 12:00:00 12 16 Oeste 28 Oeste 0 -- -- 45
2021-01-15 11:00:00 11.2 10 Oeste 19 Oeste 0 -- -- 45
2021-01-15 10:00:00 8.6 3 Norte 22 Oeste 0 -- -- 52
2021-01-15 09:00:00 6.5 10 Oeste 21 Noroeste 0 -- -- 59
2021-01-15 08:00:00 3.5 7 Norte 11 Nordeste 0 -- -- 67
2021-01-15 07:00:00 3.1 6 Nordeste 18 Oeste 0 -- -- 70
2021-01-15 06:00:00 3.9 6 Noroeste 18 Noroeste 0 -- -- 70
2021-01-15 05:00:00 5.8 8 Noroeste 25 Noroeste 0 -- -- 65
2021-01-15 04:00:00 7.7 14 Noroeste 29 Noroeste 0 -- -- 58
2021-01-15 03:00:00 6.8 10 Noroeste 18 Norte 0 -- -- 60
2021-01-15 02:00:00 6.4 3 Este 18 Noroeste 0 -- -- 67
2021-01-15 01:00:00 7.7 14 Noroeste 21 Noroeste 0 -- -- 65
2021-01-15 00:00:00 7.9 11 Noroeste 25 Noroeste 0 -- -- 65
2021-01-14 23:00:00 7.7 16 Noroeste 27 Noroeste 0 -- -- 67
2021-01-14 22:00:00 7.9 17 Oeste 29 Oeste 0 -- -- 59
2021-01-14 21:00:00 7.8 8 Noroeste 20 Oeste 0 -- -- 45
2021-01-14 20:00:00 8 11 Noroeste 22 Noroeste 0 -- -- 39
2021-01-14 19:00:00 8 10 Norte 30 Noroeste 0 -- -- 40
2021-01-14 18:00:00 9.8 13 Noroeste 24 Noroeste 0 -- -- 35
2021-01-14 17:00:00 12.8 11 Oeste 27 Oeste 0 -- -- 30
2021-01-14 16:00:00 13.6 17 Oeste 31 Oeste 0 -- -- 29
2021-01-14 15:00:00 14.8 13 Oeste 28 Oeste 0 -- -- 28
2021-01-14 14:00:00 15.9 6 Oeste 18 Oeste 0 -- -- 27
2021-01-14 13:00:00 14.7 2 Sudoeste 13 Oeste 0 -- -- 28
2021-01-14 12:00:00 11.6 5 Oeste 18 Noroeste 0 -- -- 35
2021-01-14 11:00:00 7.4 10 Oeste 22 Oeste 0 -- -- 45
2021-01-14 10:00:00 5.3 11 Noroeste 19 Noroeste 0 -- -- 48
2021-01-14 09:00:00 1.1 5 Norte 12 Oeste 0 -- -- 69
2021-01-14 08:00:00 -0.1 6 Nordeste 9 Nordeste 0 -- -- 74
2021-01-14 07:00:00 0.2 5 Norte 10 Nordeste 0 -- -- 74
2021-01-14 06:00:00 0.5 5 Nordeste 9 Nordeste 0 -- -- 74
2021-01-14 05:00:00 0.5 6 Norte 10 Nordeste 0 -- -- 77
2021-01-14 04:00:00 0.6 5 Nordeste 10 Nordeste 0 -- -- 78
2021-01-14 03:00:00 1.2 6 Norte 11 Norte 0 -- -- 75
2021-01-14 02:00:00 0.9 6 Norte 10 Nordeste 0 -- -- 79
2021-01-14 01:00:00 1.1 6 Norte 8 Nordeste 0 -- -- 79
2021-01-14 00:00:00 1.2 6 Nordeste 8 Nordeste 0 -- -- 81
2021-01-13 23:00:00 1.5 2 Norte 9 Nordeste 0 -- -- 79
2021-01-13 22:00:00 1.8 4 Norte 8 Nordeste 0 -- -- 79
2021-01-13 21:00:00 2.7 5 Nordeste 10 Nordeste 0 -- -- 76
2021-01-13 20:00:00 3.7 5 Norte 8 Norte 0 -- -- 74
2021-01-13 19:00:00 5.1 3 Norte 8 Nordeste 0 -- -- 69
2021-01-13 18:00:00 8.9 3 Nordeste 14 Noroeste 0 -- -- 55
2021-01-13 17:00:00 13.3 6 Oeste 14 Oeste 0 -- -- 39
2021-01-13 16:00:00 13.1 10 Oeste 16 Oeste 0 -- -- 40
2021-01-13 15:00:00 13.1 10 Oeste 21 Oeste 0 -- -- 39
2021-01-13 14:00:00 12 12 Oeste 20 Oeste 0 -- -- 41
2021-01-13 13:00:00 11.6 10 Oeste 18 Oeste 0 -- -- 40
2021-01-13 12:00:00 10.4 8 Oeste 21 Oeste 0 -- -- 42
2021-01-13 11:00:00 9.4 2 Este 8 Este 0 -- -- 42
2021-01-13 10:00:00 4.6 5 Nordeste 10 Nordeste 0 -- -- 54
2021-01-13 09:00:00 1.3 6 Nordeste 12 Nordeste 0 -- -- 64
2021-01-13 08:00:00 -0.4 7 Nordeste 10 Nordeste 0 -- -- 71
2021-01-13 07:00:00 -0.1 6 Norte 12 Este 0 -- -- 69
2021-01-13 06:00:00 -0.3 3 Nordeste 19 Noroeste 0 -- -- 69
2021-01-13 05:00:00 1.1 9 Norte 23 Noroeste 0 -- -- 62
2021-01-13 04:00:00 1.5 8 Noroeste 21 Noroeste 0 -- -- 60
2021-01-13 03:00:00 1 9 Noroeste 21 Noroeste 0 -- -- 63
2021-01-13 02:00:00 1.2 8 Norte 23 Noroeste 0 -- -- 62
2021-01-13 01:00:00 0.6 5 Noroeste 12 Noroeste 0 -- -- 67
2021-01-13 00:00:00 0.3 5 Oeste 12 Oeste 0 -- -- 68
2021-01-12 23:00:00 2.2 8 Noroeste 15 Norte 0 -- -- 59
2021-01-12 22:00:00 0.6 3 Noroeste 18 Noroeste 0 -- -- 67
2021-01-12 21:00:00 2.2 8 Noroeste 16 Noroeste 0 -- -- 60
2021-01-12 20:00:00 3.8 9 Noroeste 23 Noroeste 0 -- -- 53
2021-01-12 19:00:00 4.8 15 Noroeste 26 Oeste 0 -- -- 52
2021-01-12 18:00:00 6 15 Noroeste 32 Oeste 0 -- -- 50
2021-01-12 17:00:00 8.9 13 Noroeste 27 Noroeste 0 -- -- 43
2021-01-12 16:00:00 10.2 11 Oeste 22 Oeste 0 -- -- 40
2021-01-12 15:00:00 9.6 10 Oeste 29 Oeste 0 -- -- 42
2021-01-12 14:00:00 7.9 16 Noroeste 29 Noroeste 0 -- -- 43
2021-01-12 13:00:00 6.8 14 Noroeste 23 Oeste 0 -- -- 41
2021-01-12 12:00:00 5 12 Oeste 27 Oeste 0 -- -- 44
2021-01-12 11:00:00 2.5 17 Oeste 30 Oeste 0 -- -- 45
2021-01-12 10:00:00 0.5 18 Oeste 30 Oeste 0 -- -- 48
2021-01-12 09:00:00 -2.1 21 Oeste 33 Oeste 0 -- -- 55
2021-01-12 08:00:00 -3.2 15 Oeste 27 Oeste 0 -- -- 61
2021-01-12 07:00:00 -3.1 13 Noroeste 26 Noroeste 0 -- -- 63
2021-01-12 06:00:00 -3.5 6 Norte 25 Noroeste 0 -- -- 68
2021-01-12 05:00:00 -3.3 8 Noroeste 18 Oeste 0 -- -- 68
2021-01-12 04:00:00 -4.2 4 Norte 8 Noroeste 0 -- -- 78
2021-01-12 03:00:00 -3.6 4 Norte 10 Nordeste 0 -- -- 76
2021-01-12 02:00:00 -3.2 4 Nordeste 9 Norte 0 -- -- 78
2021-01-12 01:00:00 -3 4 Norte 9 Este 0 -- -- 79
2021-01-12 00:00:00 -2.4 3 Nordeste 9 Norte 0 -- -- 78
2021-01-11 23:00:00 -2.3 5 Nordeste 8 Norte 0 -- -- 82
2021-01-11 22:00:00 -1 3 Nordeste 11 Noroeste 0 -- -- 76
2021-01-11 21:00:00 -1.4 4 Norte 6 Nordeste 0 -- -- 83
2021-01-11 20:00:00 -0.9 2 Nordeste 7 Norte 0 -- -- 80
2021-01-11 19:00:00 0.5 5 Oeste 16 Oeste 0 -- -- 70
2021-01-11 18:00:00 2.4 8 Oeste 15 Oeste 0 -- -- 62
2021-01-11 17:00:00 5.3 12 Oeste 23 Noroeste 0 -- -- 54
2021-01-11 16:00:00 6.4 11 Oeste 24 Oeste 0 -- -- 52
2021-01-11 15:00:00 7 11 Oeste 22 Oeste 0 -- -- 52
2021-01-11 14:00:00 6.7 10 Noroeste 20 Oeste 0 -- -- 53
2021-01-11 13:00:00 6.9 10 Oeste 19 Oeste 0 -- -- 53
2021-01-11 12:00:00 6.8 7 Oeste 12 Oeste 0 -- -- 53
2021-01-11 11:00:00 4.6 3 Norte 17 Noroeste 0 -- -- 64
2021-01-11 10:00:00 1.8 4 Norte 22 Noroeste 0 -- -- 71
2021-01-11 09:00:00 -0.9 4 Norte 18 Noroeste 0 -- -- 81
2021-01-11 08:00:00 -0.4 10 Noroeste 20 Oeste 0 -- -- 79
2021-01-11 07:00:00 -0.7 6 Oeste 19 Oeste 0 -- -- 81
2021-01-11 06:00:00 -1.2 7 Noroeste 15 Noroeste 0 -- -- 85
2021-01-11 05:00:00 -1.6 5 Norte 17 Oeste 0 -- -- 89
2021-01-11 04:00:00 -0.9 5 Norte 14 Noroeste 0 -- -- 85
2021-01-11 03:00:00 -0.1 0 Calma 19 Oeste 0 -- -- 86
2021-01-11 02:00:00 0.6 8 Oeste 17 Oeste 0 -- -- 86
2021-01-11 01:00:00 0 7 Noroeste 12 Noroeste 0 -- -- 90
2021-01-11 00:00:00 -0.9 3 Norte 12 Noroeste 0 -- -- 91
2021-01-10 23:00:00 0.6 7 Noroeste 11 Noroeste 0 -- -- 91
2021-01-10 22:00:00 0.7 3 Noroeste 12 Noroeste 0 -- -- 89
2021-01-10 21:00:00 1.5 4 Noroeste 9 Noroeste 0 -- -- 87
2021-01-10 20:00:00 1.8 5 Noroeste 12 Noroeste 0 -- -- 87
2021-01-10 19:00:00 2.7 8 Noroeste 14 Noroeste 0 -- -- 85
2021-01-10 18:00:00 2.9 7 Noroeste 11 Noroeste 0 -- -- 86
2021-01-10 17:00:00 4.9 5 Oeste 9 Oeste 0 -- -- 80
2021-01-10 16:00:00 6.1 0 Calma 12 Oeste 0 -- -- 77
2021-01-10 15:00:00 6.7 2 Norte 6 Sudoeste 0 -- -- 71
2021-01-10 14:00:00 4.9 3 Oeste 8 Oeste 0 -- -- 77
2021-01-10 13:00:00 4.3 2 Este 7 Sudoeste 0 -- -- 76
2021-01-10 12:00:00 4.6 0 Calma 5 Nordeste 0 -- -- 71
2021-01-10 11:00:00 2.2 2 Norte 8 Este 0 -- -- 77
2021-01-10 10:00:00 0.5 0 Calma 10 Noroeste 0 -- -- 84
2021-01-10 09:00:00 -1.7 5 Noroeste 10 Oeste 0 -- -- 89
2021-01-10 08:00:00 -1.8 2 Nordeste 9 Sudoeste 0 -- -- 88
2021-01-10 07:00:00 -2.8 3 Norte 8 Norte 0 -- -- 91
2021-01-10 06:00:00 -2.6 4 Norte 8 Norte 0 -- -- 92
2021-01-10 05:00:00 -2.6 4 Norte 7 Nordeste 0 -- -- 91
2021-01-10 04:00:00 -2.1 4 Noroeste 20 Oeste 0 -- -- 90
2021-01-10 03:00:00 -0.5 11 Noroeste 20 Oeste 0 -- -- 87
2021-01-10 02:00:00 -1.2 4 Noroeste 21 Noroeste 0 -- -- 91
2021-01-10 01:00:00 0.2 14 Noroeste 26 Noroeste 0 -- -- 88
2021-01-10 00:00:00 0.5 10 Noroeste 25 Noroeste 0 -- -- 93
2021-01-09 23:00:00 -0.1 4 Nordeste 9 Norte 0 -- -- 98
2021-01-09 22:00:00 0.2 2 Sudeste 9 Noroeste 0 -- -- 98
2021-01-09 21:00:00 0 2 Noroeste 6 Noroeste 0 -- -- 98
2021-01-09 20:00:00 0.8 3 Oeste 14 Norte 0 -- -- 98
2021-01-09 19:00:00 0.7 5 Noroeste 9 Nordeste 0 -- -- 98
2021-01-09 18:00:00 1 4 Noroeste 14 Noroeste 1.6 -- -- 97
2021-01-09 17:00:00 0.9 8 Noroeste 15 Noroeste 1.4 -- -- 98
2021-01-09 16:00:00 1.1 0 Calma 7 Oeste 1.4 -- -- 97
2021-01-09 15:00:00 1.2 4 Oeste 5 Oeste 1 -- -- 96
2021-01-09 14:00:00 2.2 0 Calma 3 Noroeste 1.2 -- -- 96
2021-01-09 13:00:00 1.4 2 Oeste 6 Oeste 0.6 -- -- 96
2021-01-09 12:00:00 1.7 0 Calma 4 Noroeste 0.6 -- -- 96
2021-01-09 11:00:00 0.6 3 Noroeste 8 Oeste 0.2 -- -- 98
2021-01-09 10:00:00 0.7 3 Norte 4 Norte 0.6 -- -- 98
2021-01-09 09:00:00 0.1 0 Calma 4 Norte 1.4 -- -- 98
2021-01-09 08:00:00 0 0 Calma 3 Norte 1 -- -- 98
2021-01-09 07:00:00 0 0 Calma 4 Norte 0.8 -- -- 98
2021-01-09 06:00:00 -0.1 0 Calma 5 Norte 0.6 -- -- 98
2021-01-09 05:00:00 -0.1 2 Norte 6 Norte 1.8 -- -- 98
2021-01-09 04:00:00 -0.2 0 Calma 6 Sudeste 4 -- -- 98
2021-01-09 03:00:00 0 3 Sudeste 6 Sudeste 1.8 -- -- 98
2021-01-09 02:00:00 0.2 5 Sudeste 10 Sudeste 0.8 -- -- 98
2021-01-09 01:00:00 0.1 3 Este 10 Sur 1 -- -- 98
2021-01-09 00:00:00 0 6 Sudeste 14 Sudeste 1 -- -- 98
2021-01-08 23:00:00 0.1 6 Sudeste 15 Sudeste 1.2 -- -- 98
2021-01-08 22:00:00 0.5 6 Sudeste 16 Sudeste 0.4 -- -- 98
2021-01-08 21:00:00 0.6 5 Sudeste 11 Este 0.2 -- -- 98
2021-01-08 20:00:00 0.3 4 Este 8 Este 0 -- -- 98
2021-01-08 19:00:00 0.1 0 Calma 4 Este 0.6 -- -- 97
2021-01-08 18:00:00 0.1 2 Oeste 4 Sudoeste 1.2 -- -- 97
2021-01-08 17:00:00 0.3 0 Calma 4 Este 0.8 -- -- 97
2021-01-08 16:00:00 0.4 0 Calma 6 Sudeste 1.6 -- -- 97
2021-01-08 15:00:00 0.5 2 Sudeste 4 Este 0.8 -- -- 96
2021-01-08 14:00:00 0.8 0 Calma 2 Sur 1 -- -- 96
2021-01-08 13:00:00 0.8 0 Calma 2 Sudeste 1.2 -- -- 96
2021-01-08 12:00:00 1.2 0 Calma 4 Sudeste 1.4 -- -- 97
2021-01-08 11:00:00 0.7 3 Noroeste 4 Oeste 0.4 -- -- 97
2021-01-08 10:00:00 0.9 0 Calma 2 Este 0.4 -- -- 97
2021-01-08 09:00:00 0.6 0 Calma 4 Nordeste 0 -- -- 97
2021-01-08 08:00:00 0.4 0 Calma 6 Este 0 -- -- 97
2021-01-08 07:00:00 0.4 0 Calma -- -- 0 -- -- 97
2021-01-08 06:00:00 0.2 0 Calma 2 Noroeste 0.2 -- -- 97
2021-01-08 05:00:00 0.2 0 Calma 0 Calma 0.4 -- -- 97
2021-01-08 04:00:00 0.2 0 Calma -- -- 0.6 -- -- 97
2021-01-08 03:00:00 0.3 0 Calma -- -- 0 -- -- 96
2021-01-08 02:00:00 0.2 0 Calma -- -- 0 -- -- 97
2021-01-08 01:00:00 0.2 0 Calma -- -- 0.4 -- -- 96
2021-01-08 00:00:00 0.2 0 Calma -- -- 0.4 -- -- 96
2021-01-07 23:00:00 0.3 0 Calma 2 Sur 0.4 -- -- 96
2021-01-07 22:00:00 0.2 0 Calma 6 Este 0.8 -- -- 96
2021-01-07 21:00:00 0.4 3 Este 6 Este 0.8 -- -- 95
2021-01-07 20:00:00 0.4 3 Este 5 Este 1.4 -- -- 95
2021-01-07 19:00:00 0.6 0 Calma 4 Este 1 -- -- 94
2021-01-07 18:00:00 1.3 4 Noroeste 17 Noroeste 1.2 -- -- 94
2021-01-07 17:00:00 1.2 2 Este 4 Noroeste 1 -- -- 93
2021-01-07 16:00:00 1.7 3 Oeste 9 Noroeste 1 -- -- 93
2021-01-07 15:00:00 2.2 5 Oeste 9 Oeste 1 -- -- 92
2021-01-07 14:00:00 3 0 Calma 6 Sudoeste 0.4 -- -- 90
2021-01-07 13:00:00 3.2 5 Sudoeste 12 Noroeste 0.2 -- -- 90
2021-01-07 12:00:00 3.1 6 Noroeste 11 Noroeste 0 -- -- 92
2021-01-07 11:00:00 2.9 3 Oeste 6 Oeste 0.2 -- -- 94
2021-01-07 10:00:00 2.1 3 Sudoeste 6 Sudoeste 0 -- -- 95
2021-01-07 09:00:00 1.5 5 Noroeste 6 Noroeste 0 -- -- 95
2021-01-07 08:00:00 1.5 0 Calma 4 Noroeste 0 -- -- 95
2021-01-07 07:00:00 1.1 3 Este 6 Este 0 -- -- 94
2021-01-07 06:00:00 1.1 6 Oeste 10 Oeste 0.2 -- -- 94
2021-01-07 05:00:00 1.3 3 Oeste 6 Noroeste 0 -- -- 92
2021-01-07 04:00:00 1.4 2 Oeste 4 Sur 0.2 -- -- 91
2021-01-07 03:00:00 1.3 2 Norte 10 Noroeste 0.2 -- -- 89
2021-01-07 02:00:00 1.7 4 Norte 10 Oeste 0 -- -- 81
2021-01-07 01:00:00 1.8 3 Noroeste 5 Oeste 0 -- -- 76
2021-01-07 00:00:00 1.5 3 Oeste 5 Oeste 0 -- -- 75
2021-01-06 23:00:00 1.2 0 Calma 10 Oeste 0 -- -- 73
2021-01-06 22:00:00 0.9 5 Oeste 8 Oeste 0 -- -- 72
2021-01-06 21:00:00 1.3 5 Nordeste 9 Nordeste 0 -- -- 70
2021-01-06 20:00:00 1.8 6 Nordeste 12 Este 0 -- -- 64
2021-01-06 19:00:00 3.7 5 Nordeste 10 Nordeste 0 -- -- 58
2021-01-06 18:00:00 5.3 6 Sudeste 15 Sudeste 0 -- -- 53
2021-01-06 17:00:00 7.2 8 Sudeste 22 Sudeste 0 -- -- 47
2021-01-06 16:00:00 10.2 9 Sudeste 19 Sudeste 0 -- -- 38
2021-01-06 15:00:00 9.6 9 Sur 17 Sudeste 0 -- -- 37
2021-01-06 14:00:00 8.6 6 Sur 15 Sudoeste 0 -- -- 38
2021-01-06 13:00:00 8.8 7 Sudoeste 13 Sudoeste 0 -- -- 37
2021-01-06 12:00:00 7.6 4 Oeste 10 Noroeste 0 -- -- 44
2021-01-06 11:00:00 4.5 4 Noroeste 15 Sudoeste 0 -- -- 52
2021-01-06 10:00:00 2 3 Sudoeste 8 Oeste 0 -- -- 58
2021-01-06 09:00:00 -2.9 2 Norte 16 Noroeste 0 -- -- 74
2021-01-06 08:00:00 -2.8 9 Noroeste 16 Noroeste 0 -- -- 71
2021-01-06 07:00:00 -2.7 4 Oeste 12 Noroeste 0 -- -- 72
2021-01-06 06:00:00 -3 8 Noroeste 13 Noroeste 0 -- -- 75
2021-01-06 05:00:00 -3.2 4 Norte 8 Noroeste 0 -- -- 74
2021-01-06 04:00:00 -2.7 0 Calma 6 Norte 0 -- -- 72
2021-01-06 03:00:00 -2.9 0 Calma 10 Oeste 0 -- -- 74
2021-01-06 02:00:00 -2.4 4 Noroeste 8 Noroeste 0 -- -- 73
2021-01-06 01:00:00 -2.1 0 Calma 6 Norte 0 -- -- 72
2021-01-06 00:00:00 -1.5 3 Norte 9 Norte 0 -- -- 70
2021-01-05 23:00:00 -0.5 5 Noroeste 12 Noroeste 0 -- -- 67
2021-01-05 22:00:00 0.6 3 Sur 8 Sur 0 -- -- 68
2021-01-05 21:00:00 0.9 6 Este 10 Este 0 -- -- 63
2021-01-05 20:00:00 1.8 7 Noroeste 12 Este 0 -- -- 64
2021-01-05 19:00:00 4.1 6 Noroeste 12 Sudoeste 0 -- -- 59
2021-01-05 18:00:00 6.4 5 Noroeste 20 Noroeste 0 -- -- 46
2021-01-05 17:00:00 8.9 12 Noroeste 26 Noroeste 0 -- -- 34
2021-01-05 16:00:00 9.6 12 Noroeste 28 Noroeste 0 -- -- 33
2021-01-05 15:00:00 9.9 8 Noroeste 28 Noroeste 0 -- -- 36
2021-01-05 14:00:00 8.8 19 Noroeste 31 Noroeste 0 -- -- 36
2021-01-05 13:00:00 8.7 13 Oeste 25 Oeste 0 -- -- 37
2021-01-05 12:00:00 7.8 13 Oeste 23 Oeste 0 -- -- 42
2021-01-05 11:00:00 5.1 12 Noroeste 26 Noroeste 0 -- -- 49
2021-01-05 10:00:00 2.9 13 Noroeste 23 Noroeste 0 -- -- 55
2021-01-05 09:00:00 1 4 Noroeste 19 Noroeste 0 -- -- 60
2021-01-05 08:00:00 0.1 11 Oeste 21 Noroeste 0 -- -- 64
2021-01-05 07:00:00 0.5 14 Noroeste 26 Noroeste 0 -- -- 64
2021-01-05 06:00:00 0.8 17 Noroeste 25 Noroeste 0 -- -- 64
2021-01-05 05:00:00 0.8 13 Noroeste 21 Noroeste 0 -- -- 65
2021-01-05 04:00:00 1.1 14 Noroeste 22 Noroeste 0 -- -- 66
2021-01-05 03:00:00 1.4 13 Noroeste 19 Noroeste 0 -- -- 68
2021-01-05 02:00:00 1.9 10 Noroeste 21 Norte 0 -- -- 67
2021-01-05 01:00:00 2.6 10 Noroeste 27 Noroeste 0 -- -- 65
2021-01-05 00:00:00 2.4 9 Noroeste 19 Noroeste 0 -- -- 67
2021-01-04 23:00:00 2.1 10 Noroeste 18 Noroeste 0 -- -- 68
2021-01-04 22:00:00 2.6 11 Noroeste 18 Noroeste 0 -- -- 62
2021-01-04 21:00:00 3.1 10 Noroeste 24 Noroeste 0 -- -- 58
2021-01-04 20:00:00 3.6 12 Noroeste 21 Noroeste 0 -- -- 54
2021-01-04 19:00:00 4.3 10 Noroeste 24 Noroeste 0 -- -- 50
2021-01-04 18:00:00 5.4 11 Noroeste 28 Noroeste 0 -- -- 46
2021-01-04 17:00:00 6.6 15 Noroeste 30 Oeste 0 -- -- 41
2021-01-04 16:00:00 7.6 19 Noroeste 33 Noroeste 0 -- -- 39
2021-01-04 15:00:00 9.2 16 Oeste 39 Oeste 0 -- -- 37
2021-01-04 14:00:00 8.8 21 Oeste 39 Oeste 0 -- -- 39
2021-01-04 13:00:00 8 20 Noroeste 39 Oeste 0 -- -- 43
2021-01-04 12:00:00 6.9 14 Noroeste 32 Oeste 0 -- -- 51
2021-01-04 11:00:00 6.1 14 Noroeste 27 Noroeste 0 -- -- 57
2021-01-04 10:00:00 3.8 15 Noroeste 23 Noroeste 0 -- -- 67
2021-01-04 09:00:00 2 8 Noroeste 16 Noroeste 0 -- -- 74
2021-01-04 08:00:00 1.4 8 Noroeste 20 Noroeste 0 -- -- 78
2021-01-04 07:00:00 -1 6 Noroeste 13 Noroeste 0 -- -- 79
2021-01-04 06:00:00 1.1 10 Noroeste 22 Oeste 0 -- -- 71
2021-01-04 05:00:00 1.6 10 Noroeste 18 Noroeste 0 -- -- 69
2021-01-04 04:00:00 2.3 9 Noroeste 20 Noroeste 0 -- -- 64
2021-01-04 03:00:00 1.7 8 Norte 13 Noroeste 0 -- -- 66
2021-01-04 02:00:00 2.4 8 Noroeste 22 Noroeste 0 -- -- 63
2021-01-04 01:00:00 2.9 11 Noroeste 21 Noroeste 0 -- -- 61
2021-01-04 00:00:00 3 10 Noroeste 24 Noroeste 0 -- -- 60
2021-01-03 23:00:00 3 12 Noroeste 22 Noroeste 0 -- -- 61
2021-01-03 22:00:00 3.4 10 Noroeste 23 Noroeste 0 -- -- 59
2021-01-03 21:00:00 3.9 14 Noroeste 29 Oeste 0 -- -- 57
2021-01-03 20:00:00 5.2 13 Noroeste 34 Noroeste 0 -- -- 52
2021-01-03 19:00:00 5.7 14 Noroeste 35 Noroeste 0 -- -- 49
2021-01-03 18:00:00 6.8 18 Noroeste 33 Noroeste 0 -- -- 44
2021-01-03 17:00:00 10.1 10 Noroeste 30 Noroeste 0 -- -- 37
2021-01-03 16:00:00 10.1 17 Noroeste 37 Oeste 0 -- -- 36
2021-01-03 15:00:00 10.5 20 Noroeste 41 Oeste 0 -- -- 35
2021-01-03 14:00:00 10.3 13 Noroeste 29 Noroeste 0 -- -- 35
2021-01-03 13:00:00 8.6 14 Noroeste 41 Noroeste 0 -- -- 40
2021-01-03 12:00:00 7.2 20 Noroeste 44 Oeste 0 -- -- 43
2021-01-03 11:00:00 5.6 22 Noroeste 50 Oeste 0 -- -- 47
2021-01-03 10:00:00 3.7 26 Oeste 48 Oeste 0 -- -- 52
2021-01-03 09:00:00 2.3 15 Oeste 36 Oeste 0 -- -- 54
2021-01-03 08:00:00 2.7 15 Noroeste 37 Oeste 0 -- -- 52
2021-01-03 07:00:00 2.6 13 Noroeste 41 Oeste 0 -- -- 46
2021-01-03 06:00:00 2.5 13 Noroeste 29 Noroeste 0 -- -- 42
2021-01-03 05:00:00 2.8 18 Noroeste 33 Oeste 0 -- -- 41
2021-01-03 04:00:00 2.6 12 Noroeste 31 Noroeste 0 -- -- 45
2021-01-03 03:00:00 2.9 15 Noroeste 40 Noroeste 0 -- -- 46
2021-01-03 02:00:00 2.9 13 Noroeste 36 Noroeste 0 -- -- 49
2021-01-03 01:00:00 3.1 18 Noroeste 32 Noroeste 0 -- -- 48
2021-01-03 00:00:00 3.2 18 Noroeste 34 Oeste 0 -- -- 50
2021-01-02 23:00:00 3.1 18 Noroeste 37 Noroeste 0 -- -- 50
2021-01-02 22:00:00 3.4 21 Noroeste 36 Noroeste 0 -- -- 51
2021-01-02 21:00:00 3.8 15 Noroeste 41 Norte 0 -- -- 48
2021-01-02 20:00:00 3.4 20 Noroeste 38 Noroeste 0 -- -- 48
2021-01-02 19:00:00 3.8 21 Noroeste 46 Oeste 0 -- -- 46
2021-01-02 18:00:00 4.5 19 Noroeste 44 Oeste 0 -- -- 43
2021-01-02 17:00:00 6.2 20 Noroeste 41 Noroeste 0 -- -- 44
2021-01-02 16:00:00 5.9 18 Noroeste 46 Noroeste 0 -- -- 47
2021-01-02 15:00:00 5.9 20 Noroeste 44 Noroeste 0 -- -- 50
2021-01-02 14:00:00 5.8 29 Noroeste 57 Noroeste 0 -- -- 50